createdAt,value
2019-02-05T00:02:13.858Z,23.22
2019-02-05T00:04:43.932Z,22.90
2019-02-05T00:07:14.001Z,24.30
2019-02-05T00:09:44.081Z,23.98
2019-02-05T00:12:14.141Z,24.80
2019-02-05T00:14:45.181Z,21.87
2019-02-05T00:17:15.248Z,23.60
2019-02-05T00:19:45.320Z,22.67
2019-02-05T00:22:15.386Z,24.43
2019-02-05T00:24:45.645Z,21.62
2019-02-05T00:27:15.709Z,24.87
2019-02-05T00:29:45.778Z,25.05
2019-02-05T00:32:15.849Z,27.25
2019-02-05T00:34:45.905Z,22.73
2019-02-05T00:37:16.057Z,23.67
2019-02-05T00:39:46.114Z,23.70
2019-02-05T00:42:16.187Z,24.20
2019-02-05T00:44:46.257Z,24.67
2019-02-05T00:47:16.313Z,24.67
2019-02-05T00:49:46.386Z,24.52
2019-02-05T00:52:16.830Z,23.20
2019-02-05T00:54:46.887Z,27.82
2019-02-05T00:57:16.969Z,25.30
2019-02-05T00:59:47.033Z,27.85
2019-02-05T01:02:17.097Z,24.32
2019-02-05T01:04:47.167Z,25.45
2019-02-05T01:07:17.242Z,26.55
2019-02-05T01:09:59.922Z,24.85
2019-02-05T01:12:29.980Z,24.18
2019-02-05T01:15:00.216Z,25.88
2019-02-05T01:17:30.601Z,24.45
2019-02-05T01:20:00.686Z,24.35
2019-02-05T01:22:30.737Z,24.35
2019-02-05T01:25:00.803Z,25.77
2019-02-05T01:27:32.354Z,26.82
2019-02-05T01:30:02.417Z,25.40
2019-02-05T01:32:32.573Z,25.30
2019-02-05T01:35:02.636Z,25.32
2019-02-05T01:37:32.704Z,24.45
2019-02-05T01:40:02.764Z,26.75
2019-02-05T01:42:32.850Z,26.57
2019-02-05T01:45:03.665Z,26.35
2019-02-05T01:47:33.734Z,25.25
2019-02-05T01:50:05.805Z,27.85
2019-02-05T01:52:35.880Z,27.55
2019-02-05T01:55:08.565Z,27.75
2019-02-05T01:57:39.062Z,30.55
2019-02-05T02:00:34.395Z,26.00
2019-02-05T02:03:04.470Z,28.20
2019-02-05T02:05:34.606Z,28.47
2019-02-05T02:08:04.753Z,29.07
2019-02-05T02:10:34.811Z,30.15
2019-02-05T02:13:04.865Z,28.17
2019-02-05T02:15:34.947Z,29.72
2019-02-05T02:18:05.008Z,29.63
2019-02-05T02:20:35.074Z,28.45
2019-02-05T02:23:05.136Z,28.30
2019-02-05T02:25:35.196Z,29.90
2019-02-05T02:28:05.269Z,29.10
2019-02-05T02:30:37.748Z,31.05
2019-02-05T02:33:07.812Z,29.95
2019-02-05T02:35:38.254Z,29.90
2019-02-05T02:38:08.318Z,31.48
2019-02-05T02:40:38.742Z,30.00
2019-02-05T02:43:08.801Z,28.83
2019-02-05T02:45:38.875Z,31.33
2019-02-05T02:48:08.934Z,32.33
2019-02-05T02:50:51.933Z,28.30
2019-02-05T02:53:21.991Z,30.62
2019-02-05T02:55:52.070Z,30.30
2019-02-05T02:58:22.134Z,30.52
2019-02-05T03:00:52.609Z,31.70
2019-02-05T03:03:22.668Z,30.55
2019-02-05T03:05:52.781Z,31.42
2019-02-05T03:08:22.847Z,32.45
2019-02-05T03:10:52.908Z,31.62
2019-02-05T03:13:22.966Z,30.10
2019-02-05T03:15:53.320Z,33.10
2019-02-05T03:18:23.380Z,34.53
2019-02-05T03:20:53.466Z,31.15
2019-02-05T03:23:23.521Z,33.63
2019-02-05T03:25:53.594Z,31.70
2019-02-05T03:28:23.676Z,31.40
2019-02-05T03:30:53.956Z,30.65
2019-02-05T03:33:24.322Z,30.25
2019-02-05T03:35:54.397Z,31.15
2019-02-05T03:38:24.488Z,29.05
2019-02-05T03:40:59.691Z,32.15
2019-02-05T03:43:29.759Z,30.50
2019-02-05T03:45:59.918Z,31.33
2019-02-05T03:48:30.058Z,32.83
2019-02-05T03:51:20.106Z,30.55
2019-02-05T03:54:38.466Z,32.23
2019-02-05T03:57:30.603Z,33.58
2019-02-05T04:00:01.745Z,31.20
2019-02-05T04:03:05.456Z,30.85
2019-02-05T04:05:55.086Z,31.37
2019-02-05T04:08:32.459Z,33.73
2019-02-05T04:11:40.182Z,31.73
2019-02-05T04:14:17.689Z,30.00
2019-02-05T04:17:34.790Z,31.65
2019-02-05T04:20:27.781Z,32.90
2019-02-05T04:23:29.867Z,32.67
2019-02-05T04:26:40.562Z,32.53
2019-02-05T04:29:54.407Z,33.60
2019-02-05T04:32:52.194Z,32.70
2019-02-05T04:35:49.491Z,34.40
2019-02-05T04:38:45.237Z,34.65
2019-02-05T04:41:57.184Z,33.65
2019-02-05T04:44:55.048Z,32.75
2019-02-05T04:47:53.574Z,35.50
2019-02-05T04:50:51.992Z,32.60
2019-02-05T04:53:44.455Z,34.08
2019-02-05T04:56:22.313Z,30.55
2019-02-05T04:59:19.133Z,31.87
2019-02-05T05:01:59.843Z,33.65
2019-02-05T05:04:37.521Z,34.80
2019-02-05T05:07:15.142Z,33.80
2019-02-05T05:09:51.634Z,32.80
2019-02-05T05:12:21.983Z,31.70
2019-02-05T05:14:52.058Z,33.70
2019-02-05T05:17:22.111Z,32.03
2019-02-05T05:19:52.443Z,31.25
2019-02-05T05:22:22.503Z,31.93
2019-02-05T05:24:52.603Z,32.98
2019-02-05T05:27:22.849Z,32.38
2019-02-05T05:29:52.904Z,31.23
2019-02-05T05:32:22.979Z,35.45
2019-02-05T05:34:53.042Z,31.82
2019-02-05T05:37:23.109Z,32.40
2019-02-05T05:39:53.157Z,32.17
2019-02-05T05:42:23.345Z,32.05
2019-02-05T05:44:53.514Z,31.82
2019-02-05T05:47:23.600Z,32.53
2019-02-05T05:49:53.666Z,30.62
2019-02-05T05:52:23.977Z,30.37
2019-02-05T05:54:54.211Z,31.42
2019-02-05T05:57:24.416Z,31.00
2019-02-05T05:59:56.435Z,31.33
2019-02-05T06:02:26.588Z,30.62
2019-02-05T06:04:56.693Z,31.85
2019-02-05T06:07:29.100Z,32.10
2019-02-05T06:09:59.301Z,33.23
2019-02-05T06:12:29.698Z,30.48
2019-02-05T06:15:02.769Z,31.55
2019-02-05T06:17:49.315Z,28.92
2019-02-05T06:20:21.300Z,31.85
2019-02-05T06:22:51.751Z,31.07
2019-02-05T06:25:21.818Z,34.73
2019-02-05T06:27:51.880Z,33.35
2019-02-05T06:30:31.921Z,30.88
2019-02-05T06:33:01.985Z,34.33
2019-02-05T06:35:32.426Z,32.80
2019-02-05T06:38:05.161Z,33.05
2019-02-05T06:40:35.229Z,38.60
2019-02-05T06:43:05.284Z,34.48
2019-02-05T06:45:35.356Z,34.88
2019-02-05T06:48:05.484Z,34.80
2019-02-05T06:50:35.828Z,34.48
2019-02-05T06:53:05.888Z,31.77
2019-02-05T06:55:36.182Z,34.27
2019-02-05T06:58:06.241Z,33.70
2019-02-05T07:00:36.316Z,35.08
2019-02-05T07:03:06.544Z,31.20
2019-02-05T07:05:37.050Z,31.27
2019-02-05T07:08:07.165Z,31.02
2019-02-05T07:10:37.286Z,31.93
2019-02-05T07:13:07.401Z,32.73
2019-02-05T07:15:37.515Z,31.55
2019-02-05T07:18:07.637Z,30.60
2019-02-05T07:20:38.038Z,29.25
2019-02-05T07:23:08.152Z,31.07
2019-02-05T07:25:38.262Z,27.58
2019-02-05T07:28:08.374Z,28.35
2019-02-05T07:30:38.502Z,29.85
2019-02-05T07:33:08.609Z,27.20
2019-02-05T07:35:39.094Z,23.67
2019-02-05T07:38:09.203Z,25.15
2019-02-05T07:40:39.324Z,22.67
2019-02-05T07:43:09.428Z,23.40
2019-02-05T07:45:39.540Z,21.57
2019-02-05T07:48:09.869Z,21.85
2019-02-05T07:50:40.340Z,23.85
2019-02-05T07:53:10.691Z,21.50
2019-02-05T07:55:40.826Z,22.02
2019-02-05T07:58:10.929Z,20.48
2019-02-05T08:00:41.040Z,21.33
2019-02-05T08:03:11.158Z,20.17
2019-02-05T08:05:41.264Z,19.87
2019-02-05T08:08:11.661Z,21.02
2019-02-05T08:10:41.769Z,23.65
2019-02-05T08:13:11.993Z,21.55
2019-02-05T08:15:43.174Z,21.40
2019-02-05T08:18:13.290Z,22.90
2019-02-05T08:20:43.399Z,21.42
2019-02-05T08:23:13.509Z,21.77
2019-02-05T08:25:44.013Z,20.43
2019-02-05T08:28:14.127Z,21.40
2019-02-05T08:30:48.163Z,21.02
2019-02-05T08:33:18.265Z,19.57
2019-02-05T08:35:48.377Z,22.20
2019-02-05T08:38:18.488Z,21.07
2019-02-05T08:40:48.998Z,24.43
2019-02-05T08:43:19.060Z,21.37
2019-02-05T08:45:56.380Z,21.50
2019-02-05T08:48:20.990Z,21.97
2019-02-05T08:50:51.418Z,21.20
2019-02-05T08:53:21.551Z,21.57
2019-02-05T08:55:51.937Z,21.55
2019-02-05T08:58:30.778Z,21.60
2019-02-05T09:00:53.870Z,20.10
2019-02-05T09:03:23.984Z,20.90
2019-02-05T09:05:54.088Z,19.85
2019-02-05T09:08:24.199Z,19.98
2019-02-05T09:10:54.692Z,22.07
2019-02-05T09:13:24.828Z,19.70
2019-02-05T09:15:55.024Z,22.35
2019-02-05T09:18:25.143Z,23.70
2019-02-05T09:20:55.254Z,22.40
2019-02-05T09:23:25.375Z,22.75
2019-02-05T09:25:55.861Z,20.10
2019-02-05T09:28:25.979Z,19.65
2019-02-05T09:30:56.090Z,20.12
2019-02-05T09:33:26.207Z,21.65
2019-02-05T09:35:56.312Z,20.23
2019-02-05T09:38:27.069Z,22.10
2019-02-05T09:40:58.243Z,22.10
2019-02-05T09:43:29.995Z,22.42
2019-02-05T09:46:00.095Z,25.00
2019-02-05T09:48:30.225Z,22.77
2019-02-05T09:51:00.343Z,23.32
2019-02-05T09:53:30.467Z,25.82
2019-02-05T09:56:00.960Z,24.87
2019-02-05T09:58:31.063Z,24.52
2019-02-05T10:01:01.174Z,25.35
2019-02-05T10:03:32.358Z,25.32
2019-02-05T10:06:02.480Z,24.25
2019-02-05T10:08:32.595Z,25.50
2019-02-05T10:11:03.089Z,23.87
2019-02-05T10:13:33.200Z,24.10
2019-02-05T10:16:03.424Z,24.80
2019-02-05T10:18:33.556Z,23.67
2019-02-05T10:21:03.941Z,23.90
2019-02-05T10:23:34.051Z,22.90
2019-02-05T10:26:04.189Z,23.40
2019-02-05T10:28:34.308Z,22.48
2019-02-05T10:31:05.523Z,20.77
2019-02-05T10:33:35.626Z,24.20
2019-02-05T10:36:05.753Z,25.05
2019-02-05T10:38:35.872Z,23.50
2019-02-05T10:41:06.754Z,20.52
2019-02-05T10:43:36.865Z,23.05
2019-02-05T10:46:07.169Z,25.40
2019-02-05T10:48:37.283Z,23.65
2019-02-05T10:51:07.416Z,25.45
2019-02-05T10:53:37.531Z,24.02
2019-02-05T10:56:07.662Z,26.23
2019-02-05T10:58:37.773Z,25.23
2019-02-05T11:01:07.890Z,25.62
2019-02-05T11:03:38.007Z,26.57
2019-02-05T11:06:09.195Z,26.40
2019-02-05T11:08:39.302Z,27.42
2019-02-05T11:11:09.412Z,22.85
2019-02-05T11:13:39.568Z,24.35
2019-02-05T11:16:09.717Z,24.35
2019-02-05T11:18:39.848Z,23.55
2019-02-05T11:21:10.035Z,23.92
2019-02-05T11:23:40.144Z,22.87
2019-02-05T11:26:10.260Z,22.37
2019-02-05T11:28:40.645Z,22.40
2019-02-05T11:31:10.779Z,22.20
2019-02-05T11:33:40.899Z,23.67
2019-02-05T11:36:11.028Z,22.82
2019-02-05T11:38:41.144Z,23.40
2019-02-05T11:41:13.659Z,23.47
2019-02-05T11:43:43.088Z,23.10
2019-02-05T11:46:13.231Z,23.18
2019-02-05T11:48:43.355Z,23.32
2019-02-05T11:51:13.534Z,23.80
2019-02-05T11:53:43.685Z,23.92
2019-02-05T11:56:13.804Z,22.30
2019-02-05T11:58:44.189Z,23.10
2019-02-05T12:01:14.695Z,22.70
2019-02-05T12:03:44.802Z,24.15
2019-02-05T12:06:14.925Z,22.98
2019-02-05T12:08:45.049Z,22.00
2019-02-05T12:11:15.168Z,22.82
2019-02-05T12:13:45.570Z,21.73
2019-02-05T12:16:15.746Z,21.45
2019-02-05T12:18:45.909Z,24.25
2019-02-05T12:21:16.028Z,22.13
2019-02-05T12:23:46.246Z,22.80
2019-02-05T12:26:16.342Z,23.10
2019-02-05T12:28:46.461Z,21.68
2019-02-05T12:31:16.574Z,21.42
2019-02-05T12:33:46.701Z,21.55
2019-02-05T12:36:16.811Z,22.42
2019-02-05T12:38:46.943Z,22.50
2019-02-05T12:41:17.052Z,23.52
2019-02-05T12:43:47.178Z,22.13
2019-02-05T12:46:17.291Z,21.73
2019-02-05T12:48:47.402Z,21.12
2019-02-05T12:51:17.526Z,22.40
2019-02-05T12:53:47.636Z,21.45
2019-02-05T12:56:17.757Z,20.27
2019-02-05T12:58:47.876Z,21.45
2019-02-05T13:01:17.993Z,20.57
2019-02-05T13:03:48.120Z,20.68
2019-02-05T13:06:18.224Z,20.60
2019-02-05T13:08:48.357Z,20.92
2019-02-05T13:11:18.471Z,20.10
2019-02-05T13:13:51.562Z,18.80
2019-02-05T13:16:21.673Z,20.25
2019-02-05T13:18:52.100Z,19.50
2019-02-05T13:21:22.175Z,19.87
2019-02-05T13:23:52.304Z,20.27
2019-02-05T13:26:22.694Z,21.07
2019-02-05T13:28:52.834Z,19.52
2019-02-05T13:31:24.024Z,20.97
2019-02-05T13:33:54.148Z,22.52
2019-02-05T13:36:24.263Z,21.25
2019-02-05T13:38:54.378Z,20.97
2019-02-05T13:41:24.497Z,20.65
2019-02-05T13:43:54.624Z,19.12
2019-02-05T13:46:24.726Z,17.67
2019-02-05T13:48:54.844Z,17.82
2019-02-05T13:51:24.965Z,18.70
2019-02-05T13:53:55.456Z,17.80
2019-02-05T13:56:25.587Z,16.95
2019-02-05T13:58:55.701Z,17.95
2019-02-05T14:01:25.826Z,19.82
2019-02-05T14:03:55.940Z,20.45
2019-02-05T14:06:26.089Z,18.52
2019-02-05T14:08:56.480Z,19.27
2019-02-05T14:11:26.598Z,18.07
2019-02-05T14:13:56.769Z,18.62
2019-02-05T14:16:26.914Z,18.50
2019-02-05T14:18:57.034Z,17.65
2019-02-05T14:21:27.160Z,16.73
2019-02-05T14:23:57.277Z,15.70
2019-02-05T14:26:27.407Z,16.77
2019-02-05T14:28:57.519Z,17.15
2019-02-05T14:31:31.402Z,16.60
2019-02-05T14:33:59.566Z,17.10
2019-02-05T14:36:30.048Z,17.62
2019-02-05T14:39:00.159Z,15.98
2019-02-05T14:41:30.451Z,17.65
2019-02-05T14:44:00.565Z,17.35
2019-02-05T14:46:30.692Z,17.20
2019-02-05T14:49:00.801Z,19.50
2019-02-05T14:51:31.016Z,19.62
2019-02-05T14:54:01.139Z,19.70
2019-02-05T14:56:31.318Z,20.30
2019-02-05T14:59:01.460Z,19.65
2019-02-05T15:01:42.862Z,21.57
2019-02-05T15:04:04.361Z,20.37
2019-02-05T15:06:34.485Z,19.95
2019-02-05T15:09:05.064Z,19.98
2019-02-05T15:11:36.255Z,22.67
2019-02-05T15:14:06.442Z,20.65
2019-02-05T15:16:36.585Z,20.35
2019-02-05T15:19:06.706Z,20.48
2019-02-05T15:21:36.829Z,21.20
2019-02-05T15:24:06.942Z,20.88
2019-02-05T15:26:37.097Z,20.95
2019-02-05T15:29:07.209Z,21.25
2019-02-05T15:31:37.608Z,20.68
2019-02-05T15:34:09.388Z,21.15
2019-02-05T15:36:39.587Z,22.35
2019-02-05T15:39:12.707Z,22.80
2019-02-05T15:41:42.828Z,21.45
2019-02-05T15:44:13.418Z,21.70
2019-02-05T15:46:43.536Z,21.48
2019-02-05T15:49:13.652Z,21.02
2019-02-05T15:51:43.773Z,20.50
2019-02-05T15:54:13.899Z,22.85
2019-02-05T15:56:44.101Z,21.62
2019-02-05T15:59:14.224Z,22.85
2019-02-05T16:01:44.372Z,21.97
2019-02-05T16:04:14.478Z,22.20
2019-02-05T16:06:44.609Z,20.85
2019-02-05T16:09:14.724Z,23.50
2019-02-05T16:11:44.846Z,21.33
2019-02-05T16:14:14.957Z,21.97
2019-02-05T16:16:45.098Z,21.95
2019-02-05T16:19:15.211Z,22.37
2019-02-05T16:21:46.300Z,21.77
2019-02-05T16:24:16.407Z,22.93
2019-02-05T16:26:46.846Z,23.07
2019-02-05T16:29:16.966Z,23.62
2019-02-05T16:31:47.920Z,24.80
2019-02-05T16:34:18.034Z,23.90
2019-02-05T16:36:48.814Z,25.02
2019-02-05T16:39:18.957Z,23.62
2019-02-05T16:41:49.271Z,25.02
2019-02-05T16:44:19.385Z,23.55
2019-02-05T16:46:49.536Z,24.85
2019-02-05T16:49:22.285Z,24.87
2019-02-05T16:51:51.479Z,23.47
2019-02-05T16:54:21.874Z,28.60
2019-02-05T16:56:51.994Z,26.12
2019-02-05T16:59:22.186Z,28.85
2019-02-05T17:01:52.306Z,28.67
2019-02-05T17:04:22.428Z,28.07
2019-02-05T17:06:52.574Z,28.52
2019-02-05T17:09:22.974Z,28.70
2019-02-05T17:11:53.380Z,28.83
2019-02-05T17:14:23.527Z,26.40
2019-02-05T17:16:53.703Z,28.20
2019-02-05T17:19:23.815Z,28.52
2019-02-05T17:21:53.978Z,27.70
2019-02-05T17:24:24.094Z,28.98
2019-02-05T17:26:54.236Z,29.77
2019-02-05T17:29:24.402Z,28.17
2019-02-05T17:31:54.518Z,29.75
2019-02-05T17:34:25.716Z,28.70
2019-02-05T17:36:56.236Z,30.75
2019-02-05T17:39:26.351Z,29.10
2019-02-05T17:41:56.473Z,29.48
2019-02-05T17:44:26.582Z,30.20
2019-02-05T17:46:56.710Z,30.60
2019-02-05T17:49:27.494Z,31.12
2019-02-05T17:51:57.613Z,32.10
2019-02-05T17:54:28.823Z,31.33
2019-02-05T17:56:59.037Z,31.73
2019-02-05T17:59:29.145Z,30.80
2019-02-05T18:01:59.263Z,30.50
2019-02-05T18:04:29.774Z,29.05
2019-02-05T18:06:59.891Z,29.82
2019-02-05T18:09:30.025Z,30.82
2019-02-05T18:12:00.514Z,34.38
2019-02-05T18:14:30.641Z,28.87
2019-02-05T18:17:00.762Z,28.83
2019-02-05T18:19:30.955Z,28.35
2019-02-05T18:22:01.075Z,26.30
2019-02-05T18:24:31.185Z,28.45
2019-02-05T18:27:01.317Z,27.22
2019-02-05T18:29:31.448Z,27.07
2019-02-05T18:32:01.587Z,28.32
2019-02-05T18:34:32.673Z,26.35
2019-02-05T18:37:02.804Z,28.32
2019-02-05T18:39:32.923Z,28.42
2019-02-05T18:42:03.065Z,28.38
2019-02-05T18:44:33.181Z,28.38
2019-02-05T18:47:03.809Z,27.65
2019-02-05T18:49:33.921Z,29.50
2019-02-05T18:52:04.050Z,27.85
2019-02-05T18:54:34.179Z,29.85
2019-02-05T18:57:04.398Z,29.42
2019-02-05T18:59:34.513Z,29.77
2019-02-05T19:02:04.708Z,30.17
2019-02-05T19:04:34.828Z,30.37
2019-02-05T19:07:04.954Z,30.85
2019-02-05T19:09:35.068Z,28.42
2019-02-05T19:12:05.199Z,28.17
2019-02-05T19:14:36.057Z,29.10
2019-02-05T19:17:06.197Z,27.75
2019-02-05T19:19:36.317Z,26.42
2019-02-05T19:22:06.451Z,26.25
2019-02-05T19:24:38.200Z,27.35
2019-02-05T19:27:08.344Z,27.10
2019-02-05T19:29:38.458Z,26.82
2019-02-05T19:32:08.723Z,26.02
2019-02-05T19:34:38.865Z,26.45
2019-02-05T19:37:09.054Z,24.50
2019-02-05T19:39:39.188Z,25.02
2019-02-05T19:42:09.309Z,27.25
2019-02-05T19:44:41.061Z,27.13
2019-02-05T19:47:11.279Z,26.97
2019-02-05T19:49:41.373Z,27.27
2019-02-05T19:52:11.602Z,25.60
2019-02-05T19:54:41.705Z,24.65
2019-02-05T19:57:11.841Z,25.15
2019-02-05T19:59:42.439Z,24.55
2019-02-05T20:02:12.911Z,25.72
2019-02-05T20:04:43.042Z,25.37
2019-02-05T20:07:13.150Z,24.63
2019-02-05T20:09:43.530Z,27.67
2019-02-05T20:12:13.640Z,25.88
2019-02-05T20:14:43.851Z,25.77
2019-02-05T20:17:13.960Z,26.82
2019-02-05T20:19:44.069Z,23.98
2019-02-05T20:22:14.201Z,27.35
2019-02-05T20:24:44.321Z,25.05
2019-02-05T20:27:14.721Z,25.80
2019-02-05T20:29:45.316Z,25.23
2019-02-05T20:32:15.431Z,25.43
2019-02-05T20:34:45.540Z,24.15
2019-02-05T20:37:15.653Z,27.15
2019-02-05T20:39:45.773Z,26.85
2019-02-05T20:42:15.977Z,26.00
2019-02-05T20:44:46.467Z,26.77
2019-02-05T20:47:18.228Z,26.02
2019-02-05T20:49:48.343Z,26.30
2019-02-05T20:52:18.470Z,25.52
2019-02-05T20:54:48.569Z,26.97
2019-02-05T20:57:18.831Z,27.27
2019-02-05T20:59:48.949Z,29.05
2019-02-05T21:02:19.361Z,29.72
2019-02-05T21:04:49.479Z,27.50
2019-02-05T21:07:19.593Z,27.73
2019-02-05T21:09:49.700Z,27.22
2019-02-05T21:12:19.878Z,27.65
2019-02-05T21:14:49.992Z,29.32
2019-02-05T21:17:20.101Z,27.35
2019-02-05T21:19:50.225Z,29.32
2019-02-05T21:22:20.340Z,27.73
2019-02-05T21:24:50.458Z,29.35
2019-02-05T21:27:20.568Z,28.02
2019-02-05T21:29:50.688Z,28.75
2019-02-05T21:32:25.495Z,27.05
2019-02-05T21:34:55.617Z,27.93
2019-02-05T21:37:25.886Z,27.45
2019-02-05T21:40:02.452Z,27.75
2019-02-05T21:42:27.891Z,26.93
2019-02-05T21:44:58.290Z,28.45
2019-02-05T21:47:28.403Z,27.42
2019-02-05T21:49:58.525Z,25.72
2019-02-05T21:52:28.639Z,24.80
2019-02-05T21:54:58.765Z,26.33
2019-02-05T21:57:28.904Z,26.27
2019-02-05T21:59:59.372Z,25.92
2019-02-05T22:02:29.468Z,26.85
2019-02-05T22:04:59.628Z,24.43
2019-02-05T22:07:29.728Z,25.40
2019-02-05T22:09:59.905Z,25.75
2019-02-05T22:12:30.013Z,27.15
2019-02-05T22:15:00.242Z,25.60
2019-02-05T22:17:30.531Z,26.73
2019-02-05T22:20:00.653Z,26.68
2019-02-05T22:22:30.770Z,25.25
2019-02-05T22:25:00.886Z,25.90
2019-02-05T22:27:31.016Z,26.37
2019-02-05T22:30:01.132Z,26.25
2019-02-05T22:32:31.241Z,25.27
2019-02-05T22:35:01.363Z,25.88
2019-02-05T22:37:31.470Z,23.95
2019-02-05T22:40:01.584Z,24.57
2019-02-05T22:42:31.702Z,25.30
2019-02-05T22:45:01.820Z,25.13
2019-02-05T22:47:31.936Z,24.43
2019-02-05T22:50:02.042Z,25.75
2019-02-05T22:52:32.164Z,24.72
2019-02-05T22:55:02.657Z,23.75
2019-02-05T22:57:34.243Z,24.47
2019-02-05T23:00:18.030Z,24.85
2019-02-05T23:02:48.139Z,22.25
2019-02-05T23:05:52.914Z,23.62
2019-02-05T23:08:23.155Z,23.50
2019-02-05T23:11:10.234Z,22.80
2019-02-05T23:13:40.364Z,22.32
2019-02-05T23:16:10.482Z,22.37
2019-02-05T23:18:40.602Z,24.57
2019-02-05T23:21:10.730Z,24.07
2019-02-05T23:23:40.847Z,24.00
2019-02-05T23:26:10.862Z,21.05
2019-02-05T23:28:41.994Z,22.52
2019-02-05T23:31:12.064Z,20.90
2019-02-05T23:33:44.605Z,22.48
2019-02-05T23:36:13.878Z,20.57
2019-02-05T23:38:43.935Z,20.02
2019-02-05T23:41:14.373Z,19.35
2019-02-05T23:43:44.445Z,18.98
2019-02-05T23:46:14.499Z,20.65
2019-02-05T23:48:44.578Z,19.12
2019-02-05T23:51:14.634Z,18.07
2019-02-05T23:53:44.710Z,17.55
2019-02-05T23:56:25.384Z,17.80
2019-02-05T23:58:47.786Z,17.00
